Time;durP1;ratioP1;P1;durP2;ratioP2;P2;SDS_P1;SDS_P2;PMS_P1;PMS_P2;Temp;Humidity;BMP_temperature;BMP_pressure;BME280_temperature;BME280_humidity;BME280_pressure;Samples;Min_cycle;Max_cycle;Signal;HPM_P1;HPM_P2
2023/05/03 00:00:07;;;;;;;3.20;2.15;;;;;;;;;;4948336;28;25050;-60
2023/05/03 00:02:34;;;;;;;6.85;2.60;;;;;;;;;;4968159;28;25113;-61
2023/05/03 00:05:00;;;;;;;5.07;2.65;;;;;;;;;;4946661;28;25073;-61
2023/05/03 00:07:26;;;;;;;6.25;2.67;;;;;;;;;;4966083;28;25146;-61
2023/05/03 00:09:52;;;;;;;4.18;2.28;;;;;;;;;;4965903;28;25089;-60
2023/05/03 00:12:18;;;;;;;4.22;2.33;;;;;;;;;;4957912;28;25110;-60
2023/05/03 00:14:45;;;;;;;4.90;2.60;;;;;;;;;;4966594;28;25117;-60
2023/05/03 00:17:12;;;;;;;6.38;2.55;;;;;;;;;;4974302;28;25140;-62
2023/05/03 00:19:38;;;;;;;6.90;3.33;;;;;;;;;;4969424;28;25073;-60
2023/05/03 00:22:05;;;;;;;8.63;2.70;;;;;;;;;;4967965;28;25077;-60
2023/05/03 00:24:31;;;;;;;6.78;2.90;;;;;;;;;;4967871;28;25058;-61
2023/05/03 00:26:57;;;;;;;4.85;2.58;;;;;;;;;;4951990;28;25122;-59
2023/05/03 00:29:23;;;;;;;7.65;2.42;;;;;;;;;;4964355;28;25079;-61
2023/05/03 00:31:49;;;;;;;5.20;2.63;;;;;;;;;;4966217;28;25064;-60
2023/05/03 00:34:15;;;;;;;4.85;2.30;;;;;;;;;;4962882;28;25063;-60
2023/05/03 00:36:41;;;;;;;9.10;4.15;;;;;;;;;;4969549;28;25111;-61
2023/05/03 00:39:08;;;;;;;4.65;2.72;;;;;;;;;;4959406;28;25062;-60
2023/05/03 00:41:34;;;;;;;6.53;2.58;;;;;;;;;;4994064;23;25074;-74
2023/05/03 00:44:01;;;;;;;7.13;2.33;;;;;;;;;;4977052;28;25075;-74
2023/05/03 00:46:27;;;;;;;6.38;2.83;;;;;;;;;;4992317;28;25069;-73
2023/05/03 00:48:53;;;;;;;6.45;2.40;;;;;;;;;;4987532;28;25039;-72
2023/05/03 00:51:20;;;;;;;3.85;2.45;;;;;;;;;;4984080;28;25065;-73
2023/05/03 00:53:46;;;;;;;4.18;2.38;;;;;;;;;;4992891;28;25105;-74
2023/05/03 00:56:13;;;;;;;6.43;2.40;;;;;;;;;;4976867;28;25089;-74
2023/05/03 00:58:39;;;;;;;4.85;2.15;;;;;;;;;;4980787;28;25063;-76
2023/05/03 01:01:08;;;;;;;6.43;2.55;;;;;;;;;;4979081;28;25075;-74
2023/05/03 01:03:36;;;;;;;5.00;2.10;;;;;;;;;;4982431;28;25074;-75
2023/05/03 01:06:05;;;;;;;5.55;2.38;;;;;;;;;;4979926;28;25074;-73
2023/05/03 01:08:31;;;;;;;5.43;2.50;;;;;;;;;;4984830;28;25075;-76
2023/05/03 01:11:02;;;;;;;4.95;2.60;;;;;;;;;;4993664;28;25055;-76
2023/05/03 01:13:31;;;;;;;4.65;2.80;;;;;;;;;;4978303;28;25114;-74
2023/05/03 01:16:11;;;;;;;7.13;2.88;;;;;;;;;;4986495;28;25066;-75
2023/05/03 01:18:39;;;;;;;7.97;2.72;;;;;;;;;;4984901;28;25074;-75
2023/05/03 01:21:08;;;;;;;4.65;2.38;;;;;;;;;;4979345;28;25052;-75
2023/05/03 01:23:53;;;;;;;7.68;2.72;;;;;;;;;;4983411;28;25064;-74
2023/05/03 01:26:23;;;;;;;4.03;2.60;;;;;;;;;;4973796;28;25056;-75
2023/05/03 01:28:49;;;;;;;8.48;2.85;;;;;;;;;;4987204;28;25074;-77
2023/05/03 01:31:18;;;;;;;4.03;2.42;;;;;;;;;;5000890;28;25085;-76
2023/05/03 01:33:48;;;;;;;4.80;2.40;;;;;;;;;;5001366;28;25076;-76
2023/05/03 01:36:22;;;;;;;8.27;2.72;;;;;;;;;;4990688;28;25088;-75
2023/05/03 01:38:49;;;;;;;8.55;2.45;;;;;;;;;;4991201;28;25069;-74
2023/05/03 01:41:16;;;;;;;5.97;2.30;;;;;;;;;;4976209;28;25129;-75
2023/05/03 01:43:43;;;;;;;4.82;2.53;;;;;;;;;;4988325;28;25090;-73
2023/05/03 01:46:10;;;;;;;6.13;2.50;;;;;;;;;;4982606;28;25070;-73
2023/05/03 01:48:36;;;;;;;6.05;2.88;;;;;;;;;;4977133;28;25143;-74
2023/05/03 01:51:02;;;;;;;5.13;2.60;;;;;;;;;;4976323;28;25103;-74
2023/05/03 01:53:28;;;;;;;6.28;2.47;;;;;;;;;;4979171;28;25068;-72
2023/05/03 01:55:54;;;;;;;10.27;3.40;;;;;;;;;;4974344;28;25063;-74
2023/05/03 01:58:20;;;;;;;5.97;2.53;;;;;;;;;;4977504;28;25057;-75
2023/05/03 02:00:46;;;;;;;5.43;2.55;;;;;;;;;;4976614;28;25098;-73
2023/05/03 02:03:12;;;;;;;7.90;2.72;;;;;;;;;;4977694;28;25100;-72
2023/05/03 02:05:38;;;;;;;3.38;2.50;;;;;;;;;;4969521;28;25082;-72
2023/05/03 02:08:04;;;;;;;4.15;2.30;;;;;;;;;;4979629;28;25087;-73
2023/05/03 02:10:30;;;;;;;6.97;2.40;;;;;;;;;;4978800;28;25066;-75
2023/05/03 02:12:57;;;;;;;7.60;2.80;;;;;;;;;;4980885;28;25177;-74
2023/05/03 02:15:23;;;;;;;4.30;2.65;;;;;;;;;;4979482;28;25103;-74
2023/05/03 02:17:49;;;;;;;5.50;2.67;;;;;;;;;;4972948;28;25059;-76
2023/05/03 02:20:15;;;;;;;7.22;3.22;;;;;;;;;;4979535;28;25049;-75
2023/05/03 02:22:41;;;;;;;10.50;3.55;;;;;;;;;;4976816;28;25077;-75
2023/05/03 02:25:08;;;;;;;4.95;3.10;;;;;;;;;;4986382;28;25071;-74
2023/05/03 02:27:33;;;;;;;5.47;3.30;;;;;;;;;;4984595;28;25060;-75
2023/05/03 02:30:00;;;;;;;12.18;3.55;;;;;;;;;;4985179;28;25139;-74
2023/05/03 02:32:26;;;;;;;8.18;2.72;;;;;;;;;;4982477;28;25058;-74
2023/05/03 02:34:52;;;;;;;4.28;2.60;;;;;;;;;;4980384;28;25045;-74
2023/05/03 02:37:18;;;;;;;8.40;2.95;;;;;;;;;;4978622;28;25068;-74
2023/05/03 02:39:44;;;;;;;7.28;3.47;;;;;;;;;;4970605;28;25081;-75
2023/05/03 02:42:10;;;;;;;4.25;2.60;;;;;;;;;;4977975;28;25163;-76
2023/05/03 02:44:36;;;;;;;5.63;2.58;;;;;;;;;;4987103;28;25173;-74
2023/05/03 02:47:02;;;;;;;8.50;2.70;;;;;;;;;;4977296;28;25052;-75
2023/05/03 02:49:28;;;;;;;6.40;3.00;;;;;;;;;;4982003;28;25105;-74
2023/05/03 02:51:55;;;;;;;9.98;2.80;;;;;;;;;;4982970;28;25068;-75
2023/05/03 02:54:22;;;;;;;3.47;2.42;;;;;;;;;;4982402;28;25066;-77
2023/05/03 02:56:48;;;;;;;8.18;2.90;;;;;;;;;;4977786;28;25163;-76
2023/05/03 02:59:14;;;;;;;11.23;3.42;;;;;;;;;;4977209;28;25070;-74
2023/05/03 03:01:40;;;;;;;9.20;2.83;;;;;;;;;;4973832;28;25067;-75
2023/05/03 03:04:06;;;;;;;5.95;3.03;;;;;;;;;;4974808;28;25065;-75
2023/05/03 03:06:32;;;;;;;5.65;2.85;;;;;;;;;;4978048;28;25061;-75
2023/05/03 03:08:58;;;;;;;5.53;2.72;;;;;;;;;;4981647;28;25044;-76
2023/05/03 03:11:24;;;;;;;7.88;3.10;;;;;;;;;;4980536;28;25122;-73
2023/05/03 03:13:51;;;;;;;4.68;2.67;;;;;;;;;;4989655;28;25074;-74
2023/05/03 03:16:17;;;;;;;8.13;2.92;;;;;;;;;;4983078;28;25133;-74
2023/05/03 03:18:43;;;;;;;13.02;3.50;;;;;;;;;;4982967;28;25072;-73
2023/05/03 03:21:09;;;;;;;6.80;3.00;;;;;;;;;;4997563;28;25061;-75
2023/05/03 03:23:35;;;;;;;7.85;3.65;;;;;;;;;;4979564;28;25076;-74
2023/05/03 03:26:01;;;;;;;8.30;3.00;;;;;;;;;;4975940;28;25072;-76
2023/05/03 03:28:27;;;;;;;9.80;3.20;;;;;;;;;;4976268;28;25063;-75
2023/05/03 03:30:53;;;;;;;7.63;3.05;;;;;;;;;;4975050;28;25072;-74
2023/05/03 03:33:20;;;;;;;4.32;2.90;;;;;;;;;;4973961;28;25065;-75
2023/05/03 03:35:46;;;;;;;8.75;3.70;;;;;;;;;;4979378;28;25084;-76
2023/05/03 03:38:12;;;;;;;10.75;3.33;;;;;;;;;;4971379;28;25073;-74
2023/05/03 03:40:38;;;;;;;6.13;2.70;;;;;;;;;;4976176;28;25161;-75
2023/05/03 03:43:04;;;;;;;11.55;4.32;;;;;;;;;;4971709;28;25074;-74
2023/05/03 03:45:30;;;;;;;9.25;2.80;;;;;;;;;;4971305;28;25141;-75
2023/05/03 03:47:56;;;;;;;4.85;2.90;;;;;;;;;;4973896;28;25067;-75
2023/05/03 03:50:23;;;;;;;12.07;2.80;;;;;;;;;;4989825;28;25057;-75
2023/05/03 03:52:49;;;;;;;4.88;2.45;;;;;;;;;;4984038;28;25141;-73
2023/05/03 03:55:15;;;;;;;5.80;3.08;;;;;;;;;;4990252;28;25080;-75
2023/05/03 03:57:41;;;;;;;7.55;2.80;;;;;;;;;;4977935;28;25144;-73
2023/05/03 04:00:09;;;;;;;4.82;2.83;;;;;;;;;;4973987;28;25064;-75
2023/05/03 04:02:35;;;;;;;8.60;3.30;;;;;;;;;;4984279;28;25087;-76
2023/05/03 04:05:01;;;;;;;9.88;3.45;;;;;;;;;;4977794;28;25085;-75
2023/05/03 04:07:27;;;;;;;7.00;3.03;;;;;;;;;;4987861;28;25052;-73
2023/05/03 04:09:53;;;;;;;7.68;3.40;;;;;;;;;;4978786;28;25065;-77
2023/05/03 04:12:24;;;;;;;7.00;3.10;;;;;;;;;;4985589;28;25054;-77
2023/05/03 04:14:50;;;;;;;6.38;2.80;;;;;;;;;;5004599;28;25053;-74
2023/05/03 04:17:16;;;;;;;5.82;2.67;;;;;;;;;;4987487;28;25155;-74
2023/05/03 04:19:43;;;;;;;7.28;3.20;;;;;;;;;;4969368;28;25050;-75
2023/05/03 04:22:09;;;;;;;8.68;3.72;;;;;;;;;;4973824;28;25070;-75
2023/05/03 04:24:38;;;;;;;10.88;3.83;;;;;;;;;;4981392;28;25117;-74
2023/05/03 04:27:04;;;;;;;6.53;3.30;;;;;;;;;;4979860;28;25049;-76
2023/05/03 04:29:30;;;;;;;9.93;3.83;;;;;;;;;;4980246;28;25074;-74
2023/05/03 04:31:56;;;;;;;8.90;3.53;;;;;;;;;;4978217;28;25134;-75
2023/05/03 04:34:23;;;;;;;6.88;3.70;;;;;;;;;;4970844;28;25063;-76
2023/05/03 04:36:49;;;;;;;15.07;3.97;;;;;;;;;;4977027;28;25140;-75
2023/05/03 04:39:15;;;;;;;9.38;2.75;;;;;;;;;;4976260;28;25208;-74
2023/05/03 04:41:41;;;;;;;13.73;3.80;;;;;;;;;;4980532;28;25103;-74
2023/05/03 04:44:08;;;;;;;5.75;3.35;;;;;;;;;;4978293;28;25083;-74
2023/05/03 04:46:34;;;;;;;11.40;3.42;;;;;;;;;;4976702;28;25169;-76
2023/05/03 04:49:00;;;;;;;7.18;2.90;;;;;;;;;;4978610;28;25131;-75
2023/05/03 04:51:27;;;;;;;7.18;3.35;;;;;;;;;;4976705;28;25055;-77
2023/05/03 04:53:53;;;;;;;5.60;2.85;;;;;;;;;;4977600;28;25147;-76
2023/05/03 04:56:24;;;;;;;6.28;3.05;;;;;;;;;;4975174;28;25051;-76
2023/05/03 04:58:51;;;;;;;9.10;3.50;;;;;;;;;;4981846;28;25156;-75
2023/05/03 05:01:17;;;;;;;10.95;3.33;;;;;;;;;;4985083;28;25076;-75
2023/05/03 05:03:43;;;;;;;6.10;2.75;;;;;;;;;;4977169;28;25066;-73
2023/05/03 05:06:11;;;;;;;10.25;2.97;;;;;;;;;;4975399;28;25149;-75
2023/05/03 05:08:37;;;;;;;6.18;2.90;;;;;;;;;;4982323;28;25087;-74
2023/05/03 05:11:04;;;;;;;5.53;3.08;;;;;;;;;;4980882;28;25068;-75
2023/05/03 05:13:30;;;;;;;5.45;2.72;;;;;;;;;;4993795;28;25062;-77
2023/05/03 05:15:56;;;;;;;5.95;3.47;;;;;;;;;;4999310;28;25065;-77
2023/05/03 05:18:22;;;;;;;15.50;3.22;;;;;;;;;;5007254;28;25072;-74
2023/05/03 05:20:48;;;;;;;6.55;3.28;;;;;;;;;;5013667;28;25109;-75
2023/05/03 05:23:15;;;;;;;6.28;3.13;;;;;;;;;;4998071;28;25069;-73
2023/05/03 05:25:41;;;;;;;8.07;3.15;;;;;;;;;;4987251;28;25065;-74
2023/05/03 05:28:07;;;;;;;6.28;3.03;;;;;;;;;;4990261;28;25080;-75
2023/05/03 05:30:34;;;;;;;10.60;3.30;;;;;;;;;;4985390;28;25062;-74
2023/05/03 05:33:00;;;;;;;6.32;2.85;;;;;;;;;;4983622;28;25066;-74
2023/05/03 05:35:26;;;;;;;7.55;3.17;;;;;;;;;;4982838;28;25055;-73
2023/05/03 05:37:53;;;;;;;6.60;3.25;;;;;;;;;;4986089;28;25063;-75
2023/05/03 05:40:19;;;;;;;8.35;2.90;;;;;;;;;;4999602;28;25107;-75
2023/05/03 05:42:45;;;;;;;9.80;3.08;;;;;;;;;;4994254;28;25048;-75
2023/05/03 05:45:11;;;;;;;5.35;2.80;;;;;;;;;;5002301;28;25064;-76
2023/05/03 05:47:37;;;;;;;6.20;2.38;;;;;;;;;;4987709;28;25128;-76
2023/05/03 05:50:03;;;;;;;8.02;3.13;;;;;;;;;;4978905;28;25108;-75
2023/05/03 05:52:29;;;;;;;8.15;2.55;;;;;;;;;;4982799;28;25053;-74
2023/05/03 05:54:55;;;;;;;6.15;2.28;;;;;;;;;;4981780;28;25065;-76
2023/05/03 05:57:21;;;;;;;11.13;3.00;;;;;;;;;;4986156;28;25082;-76
2023/05/03 05:59:47;;;;;;;5.57;2.42;;;;;;;;;;4987484;28;25086;-74
2023/05/03 06:02:16;;;;;;;11.82;2.83;;;;;;;;;;4989913;28;25083;-75
2023/05/03 06:04:43;;;;;;;4.47;2.45;;;;;;;;;;4984294;28;25071;-75
2023/05/03 06:07:09;;;;;;;7.65;2.15;;;;;;;;;;4989499;28;25128;-75
2023/05/03 06:09:35;;;;;;;7.88;2.95;;;;;;;;;;4984107;28;25087;-75
2023/05/03 06:12:01;;;;;;;9.25;2.63;;;;;;;;;;4985463;28;25072;-74
2023/05/03 06:14:27;;;;;;;7.45;3.03;;;;;;;;;;4981745;28;25073;-76
2023/05/03 06:16:53;;;;;;;7.72;3.55;;;;;;;;;;4988512;28;25069;-77
2023/05/03 06:19:19;;;;;;;8.50;2.58;;;;;;;;;;4991240;28;25105;-77
2023/05/03 06:21:45;;;;;;;9.57;3.47;;;;;;;;;;4983664;28;25051;-76
2023/05/03 06:24:13;;;;;;;9.88;2.92;;;;;;;;;;4982576;28;25068;-75
2023/05/03 06:26:39;;;;;;;4.75;2.92;;;;;;;;;;4998601;28;25098;-79
2023/05/03 06:29:05;;;;;;;7.10;2.88;;;;;;;;;;5009828;28;25049;-78
2023/05/03 06:31:31;;;;;;;13.45;3.00;;;;;;;;;;4998246;28;25056;-76
2023/05/03 06:33:58;;;;;;;4.57;2.42;;;;;;;;;;4981816;28;25104;-76
2023/05/03 06:36:24;;;;;;;4.43;2.47;;;;;;;;;;4990497;28;25301;-76
2023/05/03 06:38:50;;;;;;;7.57;2.75;;;;;;;;;;4978052;28;25116;-75
2023/05/03 06:41:16;;;;;;;9.50;3.30;;;;;;;;;;4963349;28;25133;-75
2023/05/03 06:43:42;;;;;;;5.68;2.70;;;;;;;;;;4976176;28;25141;-76
2023/05/03 06:46:08;;;;;;;5.85;3.15;;;;;;;;;;4973186;28;25051;-74
2023/05/03 06:48:34;;;;;;;4.78;2.60;;;;;;;;;;4972627;28;25096;-75
2023/05/03 06:51:00;;;;;;;6.85;2.33;;;;;;;;;;4976569;28;25126;-77
2023/05/03 06:53:27;;;;;;;8.77;2.40;;;;;;;;;;4964921;28;25139;-75
2023/05/03 06:55:53;;;;;;;7.82;2.60;;;;;;;;;;4978131;28;25067;-74
2023/05/03 06:58:19;;;;;;;4.28;2.22;;;;;;;;;;4970867;28;25111;-74
2023/05/03 07:00:45;;;;;;;7.82;2.40;;;;;;;;;;4980557;28;25086;-77
2023/05/03 07:03:11;;;;;;;10.88;2.67;;;;;;;;;;4980389;28;25074;-75
2023/05/03 07:05:37;;;;;;;3.17;2.63;;;;;;;;;;4971175;28;25145;-76
2023/05/03 07:08:04;;;;;;;5.72;2.50;;;;;;;;;;4975400;28;25090;-75
2023/05/03 07:10:30;;;;;;;9.05;3.33;;;;;;;;;;4984338;28;25112;-78
2023/05/03 07:12:56;;;;;;;3.50;2.10;;;;;;;;;;4976212;28;25070;-76
2023/05/03 07:15:22;;;;;;;9.20;2.25;;;;;;;;;;4991270;28;25088;-77
2023/05/03 07:17:48;;;;;;;6.38;2.25;;;;;;;;;;4973808;28;25084;-77
2023/05/03 07:20:14;;;;;;;6.55;2.63;;;;;;;;;;4987885;28;25074;-77
2023/05/03 07:22:40;;;;;;;3.70;2.00;;;;;;;;;;4971027;28;25379;-78
2023/05/03 07:25:07;;;;;;;2.80;1.33;;;;;;;;;;4980652;28;25138;-75
2023/05/03 07:27:33;;;;;;;9.65;1.50;;;;;;;;;;4975619;28;25052;-76
2023/05/03 07:30:00;;;;;;;3.72;1.73;;;;;;;;;;4971718;28;25102;-76
2023/05/03 07:32:26;;;;;;;6.00;2.55;;;;;;;;;;4966982;28;25109;-75
2023/05/03 07:34:52;;;;;;;4.57;1.75;;;;;;;;;;4977806;28;25065;-80
2023/05/03 07:37:18;;;;;;;2.72;1.65;;;;;;;;;;4976878;28;25094;-76
2023/05/03 07:39:44;;;;;;;6.28;2.40;;;;;;;;;;4984740;28;25056;-75
2023/05/03 07:42:10;;;;;;;5.97;1.50;;;;;;;;;;4975378;28;25054;-74
2023/05/03 07:44:36;;;;;;;5.82;2.17;;;;;;;;;;4977456;28;25061;-78
2023/05/03 07:47:03;;;;;;;3.75;1.65;;;;;;;;;;4971779;28;25076;-75
2023/05/03 07:49:29;;;;;;;6.18;2.00;;;;;;;;;;4971733;28;25141;-76
2023/05/03 07:51:55;;;;;;;4.47;1.95;;;;;;;;;;4967051;28;25144;-79
2023/05/03 07:54:21;;;;;;;3.83;1.65;;;;;;;;;;4972233;28;25073;-76
2023/05/03 07:56:47;;;;;;;3.20;1.35;;;;;;;;;;4975025;28;25089;-77
2023/05/03 07:59:13;;;;;;;4.00;1.80;;;;;;;;;;4975035;28;25088;-76
2023/05/03 08:01:39;;;;;;;3.95;1.92;;;;;;;;;;4976231;28;25069;-74
2023/05/03 08:04:05;;;;;;;12.57;2.03;;;;;;;;;;4988934;28;25042;-76
2023/05/03 08:06:34;;;;;;;6.82;2.88;;;;;;;;;;4995789;28;25057;-76
2023/05/03 08:09:00;;;;;;;7.65;2.03;;;;;;;;;;5007803;28;25053;-75
2023/05/03 08:11:27;;;;;;;5.80;1.83;;;;;;;;;;4987068;28;25105;-76
2023/05/03 08:13:53;;;;;;;4.82;2.63;;;;;;;;;;4982216;28;25055;-76
2023/05/03 08:16:20;;;;;;;6.63;2.42;;;;;;;;;;4972656;28;25058;-79
2023/05/03 08:18:46;;;;;;;10.20;2.25;;;;;;;;;;4978945;28;25117;-77
2023/05/03 08:21:12;;;;;;;6.70;1.40;;;;;;;;;;4976389;28;25129;-76
2023/05/03 08:23:38;;;;;;;9.52;2.10;;;;;;;;;;5001437;28;25068;-78
2023/05/03 08:26:06;;;;;;;3.70;1.58;;;;;;;;;;4977998;28;25154;-78
2023/05/03 08:28:33;;;;;;;4.90;1.50;;;;;;;;;;4972548;28;25056;-76
2023/05/03 08:30:59;;;;;;;12.70;2.40;;;;;;;;;;4980565;28;25159;-76
2023/05/03 08:33:25;;;;;;;4.45;1.40;;;;;;;;;;4977788;28;25069;-75
2023/05/03 08:35:51;;;;;;;5.40;1.42;;;;;;;;;;4979028;28;25066;-77
2023/05/03 08:38:17;;;;;;;4.38;1.50;;;;;;;;;;4984916;28;25070;-78
2023/05/03 08:40:44;;;;;;;4.15;1.65;;;;;;;;;;4977004;28;25078;-77
2023/05/03 08:43:11;;;;;;;7.20;2.05;;;;;;;;;;4982849;28;24885;-76
2023/05/03 08:45:37;;;;;;;4.43;1.65;;;;;;;;;;4973937;28;25064;-77
2023/05/03 08:48:04;;;;;;;4.47;1.73;;;;;;;;;;4972164;28;25061;-78
2023/05/03 08:50:30;;;;;;;4.32;1.52;;;;;;;;;;4969983;28;25068;-77
2023/05/03 08:52:56;;;;;;;3.83;1.67;;;;;;;;;;4982742;28;25133;-78
2023/05/03 08:55:22;;;;;;;4.95;2.38;;;;;;;;;;4989720;28;25048;-76
2023/05/03 08:57:48;;;;;;;8.32;2.10;;;;;;;;;;4990413;28;25065;-77
2023/05/03 09:00:18;;;;;;;5.47;1.80;;;;;;;;;;4998439;28;25062;-77
2023/05/03 09:02:44;;;;;;;3.38;1.75;;;;;;;;;;4995846;28;25101;-74
2023/05/03 09:05:16;;;;;;;2.70;1.88;;;;;;;;;;4993350;28;25093;-77
2023/05/03 09:08:02;;;;;;;2.35;1.83;;;;;;;;;;4998233;28;25076;-76
2023/05/03 09:10:29;;;;;;;9.02;2.17;;;;;;;;;;5001677;28;25051;-75
2023/05/03 09:13:02;;;;;;;6.22;1.70;;;;;;;;;;4998350;23;25102;-62
2023/05/03 09:15:31;;;;;;;6.88;2.47;;;;;;;;;;4994010;28;25066;-62
2023/05/03 09:18:06;;;;;;;10.30;3.15;;;;;;;;;;4983992;28;25098;-62
2023/05/03 09:20:34;;;;;;;3.90;2.15;;;;;;;;;;4983654;28;25107;-61
2023/05/03 09:23:00;;;;;;;4.05;1.75;;;;;;;;;;4964480;28;25115;-63
2023/05/03 09:25:39;;;;;;;3.38;2.00;;;;;;;;;;4972644;23;25057;-76
2023/05/03 09:28:05;;;;;;;9.25;2.47;;;;;;;;;;4993101;28;25141;-76
2023/05/03 09:30:32;;;;;;;4.55;1.80;;;;;;;;;;5004339;28;25096;-76
2023/05/03 09:32:58;;;;;;;3.90;2.47;;;;;;;;;;4984330;28;25058;-76
2023/05/03 09:35:24;;;;;;;3.83;2.17;;;;;;;;;;4986600;28;25046;-77
2023/05/03 09:37:50;;;;;;;4.03;2.35;;;;;;;;;;4983132;28;25059;-77
2023/05/03 09:40:17;;;;;;;3.67;2.35;;;;;;;;;;4993677;28;25070;-76
2023/05/03 09:43:01;;;;;;;7.25;2.65;;;;;;;;;;4980858;28;25067;-75
2023/05/03 09:45:28;;;;;;;4.90;2.22;;;;;;;;;;4984739;28;25087;-77
2023/05/03 09:47:55;;;;;;;4.47;2.70;;;;;;;;;;4982880;28;25130;-77
2023/05/03 09:50:21;;;;;;;6.95;2.85;;;;;;;;;;4986135;28;25065;-76
2023/05/03 09:52:48;;;;;;;4.40;2.38;;;;;;;;;;4988321;28;25055;-76
2023/05/03 09:55:16;;;;;;;7.15;3.03;;;;;;;;;;4992630;28;25096;-75
2023/05/03 09:57:45;;;;;;;7.75;3.35;;;;;;;;;;4981434;28;25108;-75
2023/05/03 10:00:12;;;;;;;3.22;2.53;;;;;;;;;;4984685;28;25100;-78
2023/05/03 10:02:39;;;;;;;10.80;2.88;;;;;;;;;;4983317;28;25154;-76
2023/05/03 10:05:06;;;;;;;8.55;3.25;;;;;;;;;;4993305;28;25059;-76
2023/05/03 10:07:33;;;;;;;5.57;2.92;;;;;;;;;;4986457;28;25117;-75
2023/05/03 10:09:58;;;;;;;4.07;2.53;;;;;;;;;;4997149;28;25066;-77
2023/05/03 10:12:25;;;;;;;6.75;2.70;;;;;;;;;;4970185;28;25129;-76
2023/05/03 10:14:52;;;;;;;8.52;2.50;;;;;;;;;;4975504;28;25073;-75
2023/05/03 10:17:18;;;;;;;3.80;2.22;;;;;;;;;;4972684;28;25086;-78
2023/05/03 10:19:52;;;;;;;4.97;2.70;;;;;;;;;;4995378;28;25052;-77
2023/05/03 10:22:18;;;;;;;6.22;3.30;;;;;;;;;;4977926;28;25066;-77
2023/05/03 10:24:56;;;;;;;6.50;2.70;;;;;;;;;;4999687;28;25074;-77
2023/05/03 10:27:23;;;;;;;7.78;2.63;;;;;;;;;;4978650;28;25043;-77
2023/05/03 10:29:50;;;;;;;7.93;2.78;;;;;;;;;;4996837;28;25107;-75
2023/05/03 10:32:41;;;;;;;7.97;3.03;;;;;;;;;;4989350;28;25094;-77
2023/05/03 10:35:08;;;;;;;4.80;2.85;;;;;;;;;;4986035;28;25154;-75
2023/05/03 10:37:35;;;;;;;7.30;2.83;;;;;;;;;;4977173;28;25071;-76
2023/05/03 10:40:08;;;;;;;3.67;2.78;;;;;;;;;;4982930;28;25087;-77
2023/05/03 10:42:34;;;;;;;9.88;3.80;;;;;;;;;;4977083;28;25065;-74
2023/05/03 10:45:02;;;;;;;7.22;3.28;;;;;;;;;;4996756;28;25129;-76
2023/05/03 10:47:28;;;;;;;5.28;2.97;;;;;;;;;;4980896;28;25074;-76
2023/05/03 10:50:13;;;;;;;7.63;3.25;;;;;;;;;;4979534;28;25056;-78
2023/05/03 10:52:39;;;;;;;5.18;2.70;;;;;;;;;;4992407;28;25062;-76
2023/05/03 10:55:13;;;;;;;7.13;2.70;;;;;;;;;;4994357;28;25048;-75
2023/05/03 10:57:40;;;;;;;6.93;2.85;;;;;;;;;;4991075;28;25390;-76
2023/05/03 11:00:16;;;;;;;7.95;2.85;;;;;;;;;;4995995;28;25059;-74
2023/05/03 11:03:05;;;;;;;8.32;3.53;;;;;;;;;;4996050;28;25128;-74
2023/05/03 11:05:32;;;;;;;6.45;2.80;;;;;;;;;;4992735;28;25073;-72
2023/05/03 11:08:12;;;;;;;7.03;3.55;;;;;;;;;;4998370;28;25152;-76
2023/05/03 11:10:38;;;;;;;9.38;3.38;;;;;;;;;;4991680;28;25137;-76
2023/05/03 11:13:05;;;;;;;5.80;3.45;;;;;;;;;;4979795;28;25148;-77
2023/05/03 11:15:31;;;;;;;7.22;2.72;;;;;;;;;;4986903;28;25064;-75
2023/05/03 11:17:58;;;;;;;7.80;3.15;;;;;;;;;;4990208;28;25058;-77
2023/05/03 11:20:25;;;;;;;4.38;3.13;;;;;;;;;;4983417;28;25078;-76
2023/05/03 11:22:51;;;;;;;7.55;4.15;;;;;;;;;;4980622;28;25067;-76
2023/05/03 11:25:18;;;;;;;5.05;3.65;;;;;;;;;;4979607;28;25118;-75
2023/05/03 11:27:45;;;;;;;8.27;2.90;;;;;;;;;;4981699;28;25068;-75
2023/05/03 11:30:12;;;;;;;11.30;3.55;;;;;;;;;;4984705;28;25141;-73
2023/05/03 11:32:38;;;;;;;7.40;3.10;;;;;;;;;;4975838;28;25070;-74
2023/05/03 11:35:06;;;;;;;6.30;3.10;;;;;;;;;;4989806;28;25064;-75
2023/05/03 11:37:32;;;;;;;7.55;2.63;;;;;;;;;;4976856;28;25056;-76
2023/05/03 11:39:59;;;;;;;6.25;2.92;;;;;;;;;;4972278;28;25059;-75
2023/05/03 11:42:26;;;;;;;7.57;2.78;;;;;;;;;;4971866;28;25093;-77
2023/05/03 11:44:53;;;;;;;6.32;3.25;;;;;;;;;;5008723;23;25062;-60
2023/05/03 11:47:19;;;;;;;9.07;3.50;;;;;;;;;;4970300;28;25116;-59
2023/05/03 11:49:54;;;;;;;8.68;3.42;;;;;;;;;;4967093;28;25140;-60
2023/05/03 11:52:22;;;;;;;6.00;3.67;;;;;;;;;;4961848;28;25103;-59
2023/05/03 11:54:48;;;;;;;4.35;3.30;;;;;;;;;;4970205;28;25129;-59
2023/05/03 11:57:15;;;;;;;8.55;3.88;;;;;;;;;;4977242;23;25057;-76
2023/05/03 11:59:41;;;;;;;7.10;3.50;;;;;;;;;;4974989;28;25150;-76
2023/05/03 12:02:09;;;;;;;7.53;3.72;;;;;;;;;;4971858;28;25053;-76
2023/05/03 12:04:39;;;;;;;6.28;3.42;;;;;;;;;;4979897;28;25061;-76
2023/05/03 12:07:15;;;;;;;6.25;3.53;;;;;;;;;;4980986;28;25050;-78
2023/05/03 12:09:41;;;;;;;6.00;3.35;;;;;;;;;;4981748;28;25132;-78
2023/05/03 12:12:07;;;;;;;11.93;3.90;;;;;;;;;;4972375;28;25085;-75
2023/05/03 12:14:52;;;;;;;8.13;3.72;;;;;;;;;;4974958;28;25051;-76
2023/05/03 12:17:33;;;;;;;5.22;3.72;;;;;;;;;;4981620;28;25071;-75
2023/05/03 12:20:18;;;;;;;7.63;3.63;;;;;;;;;;4976975;28;25119;-76
2023/05/03 12:22:44;;;;;;;7.07;3.85;;;;;;;;;;4967085;28;25049;-77
2023/05/03 12:25:10;;;;;;;6.78;3.17;;;;;;;;;;4973460;28;25162;-76
2023/05/03 12:27:36;;;;;;;5.55;3.47;;;;;;;;;;4980852;28;25080;-77
2023/05/03 12:30:02;;;;;;;8.88;3.47;;;;;;;;;;4969981;28;25138;-77
2023/05/03 12:32:28;;;;;;;10.65;3.75;;;;;;;;;;4973263;28;25114;-75
2023/05/03 12:34:57;;;;;;;9.13;3.50;;;;;;;;;;4977195;28;25130;-76
2023/05/03 12:37:23;;;;;;;6.30;4.38;;;;;;;;;;4970464;28;25126;-76
2023/05/03 12:39:50;;;;;;;10.02;3.53;;;;;;;;;;4964247;28;25433;-76
2023/05/03 12:42:16;;;;;;;7.72;3.42;;;;;;;;;;4969821;28;25074;-76
2023/05/03 12:44:43;;;;;;;4.97;3.03;;;;;;;;;;4967396;28;25127;-77
2023/05/03 12:47:09;;;;;;;5.40;3.30;;;;;;;;;;4965512;28;25053;-76
2023/05/03 12:49:34;;;;;;;6.32;3.28;;;;;;;;;;4973125;28;25081;-75
2023/05/03 12:52:00;;;;;;;6.13;3.33;;;;;;;;;;4969691;28;25095;-76
2023/05/03 12:54:26;;;;;;;6.93;3.50;;;;;;;;;;4971529;28;25068;-76
2023/05/03 12:56:52;;;;;;;7.05;3.67;;;;;;;;;;4970024;28;25070;-75
2023/05/03 12:59:18;;;;;;;5.38;3.58;;;;;;;;;;4972455;28;25077;-76
2023/05/03 13:01:44;;;;;;;5.28;3.83;;;;;;;;;;4968510;28;25154;-75
2023/05/03 13:04:11;;;;;;;5.82;3.03;;;;;;;;;;4969479;28;25071;-78
2023/05/03 13:06:37;;;;;;;8.77;3.38;;;;;;;;;;4968010;28;25131;-76
2023/05/03 13:09:06;;;;;;;7.40;3.50;;;;;;;;;;4969244;28;25079;-75
2023/05/03 13:11:33;;;;;;;7.43;3.33;;;;;;;;;;4976656;28;25074;-76
2023/05/03 13:14:00;;;;;;;4.78;3.30;;;;;;;;;;4973909;28;25072;-78
2023/05/03 13:16:26;;;;;;;7.57;4.13;;;;;;;;;;4974384;28;25058;-76
2023/05/03 13:18:55;;;;;;;7.15;3.05;;;;;;;;;;4969354;28;25072;-76
2023/05/03 13:21:21;;;;;;;9.25;3.70;;;;;;;;;;4969322;28;25051;-76
2023/05/03 13:23:47;;;;;;;9.10;3.85;;;;;;;;;;4973252;28;25057;-75
2023/05/03 13:26:13;;;;;;;13.57;4.30;;;;;;;;;;4970758;28;25064;-76
2023/05/03 13:28:40;;;;;;;9.32;3.50;;;;;;;;;;4978330;28;25068;-74
2023/05/03 13:31:06;;;;;;;11.65;4.35;;;;;;;;;;4974714;28;25070;-77
2023/05/03 13:33:36;;;;;;;9.00;3.63;;;;;;;;;;4974793;28;25064;-77
2023/05/03 13:36:03;;;;;;;8.30;4.40;;;;;;;;;;4968503;28;25062;-76
2023/05/03 13:38:29;;;;;;;10.23;3.53;;;;;;;;;;4965981;28;25145;-75
2023/05/03 13:40:55;;;;;;;6.90;3.72;;;;;;;;;;4971800;28;25179;-76
2023/05/03 13:43:21;;;;;;;7.85;3.95;;;;;;;;;;4968351;28;25137;-75
2023/05/03 13:45:47;;;;;;;8.63;3.78;;;;;;;;;;4976250;28;25068;-76
2023/05/03 13:48:13;;;;;;;6.75;3.47;;;;;;;;;;4968330;28;25064;-76
2023/05/03 13:50:38;;;;;;;5.88;3.28;;;;;;;;;;4970123;28;25064;-77
2023/05/03 13:53:05;;;;;;;5.30;3.38;;;;;;;;;;4974495;28;25074;-77
2023/05/03 13:55:31;;;;;;;11.60;3.33;;;;;;;;;;4974091;28;25152;-76
2023/05/03 13:57:57;;;;;;;4.80;3.60;;;;;;;;;;4969447;28;25085;-77
2023/05/03 14:00:23;;;;;;;9.88;4.63;;;;;;;;;;4966113;28;25063;-76
2023/05/03 14:02:50;;;;;;;12.65;4.00;;;;;;;;;;4971115;28;25068;-76
2023/05/03 14:05:18;;;;;;;6.68;3.40;;;;;;;;;;4975878;28;25066;-76
2023/05/03 14:07:44;;;;;;;9.70;3.75;;;;;;;;;;4977451;28;25057;-76
2023/05/03 14:10:10;;;;;;;6.97;3.53;;;;;;;;;;4961301;28;25069;-77
2023/05/03 14:12:37;;;;;;;6.55;3.58;;;;;;;;;;4972902;28;25167;-75
2023/05/03 14:15:03;;;;;;;6.97;3.53;;;;;;;;;;4972669;28;25070;-75
2023/05/03 14:17:29;;;;;;;6.85;3.28;;;;;;;;;;4974636;28;25139;-75
2023/05/03 14:19:55;;;;;;;11.23;3.97;;;;;;;;;;4978396;28;25066;-74
2023/05/03 14:22:21;;;;;;;5.47;4.13;;;;;;;;;;4978765;28;25048;-75
2023/05/03 14:24:49;;;;;;;5.47;3.70;;;;;;;;;;4975910;28;25097;-78
2023/05/03 14:27:19;;;;;;;8.07;3.58;;;;;;;;;;4978705;28;25064;-75
2023/05/03 14:29:45;;;;;;;5.65;3.63;;;;;;;;;;4987413;28;25073;-74
2023/05/03 14:32:12;;;;;;;11.93;3.83;;;;;;;;;;4985226;28;25144;-75
2023/05/03 14:34:38;;;;;;;10.27;3.97;;;;;;;;;;4996073;28;25073;-77
2023/05/03 14:37:04;;;;;;;8.95;3.33;;;;;;;;;;4994550;28;25078;-78
2023/05/03 14:39:30;;;;;;;8.40;4.03;;;;;;;;;;4977640;28;25093;-77